Time;durP1;ratioP1;P1;durP2;ratioP2;P2;SDS_P1;SDS_P2;PMS_P1;PMS_P2;Temp;Humidity;BMP_temperature;BMP_pressure;BME280_temperature;BME280_humidity;BME280_pressure;Samples;Min_cycle;Max_cycle;Signal;HPM_P1;HPM_P2
2022/05/07 00:00:02;;;;;;;15.32;14.00;;;;;;;8.89;98.96;102200.97;1044381;28;20704;-81
2022/05/07 00:00:36;;;;;;;16.00;14.40;;;;;;;8.93;99.01;102210.25;1040263;28;20308;-81
2022/05/07 00:01:08;;;;;;;17.17;15.57;;;;;;;8.73;98.42;102206.31;1036980;28;20297;-81
2022/05/07 00:01:39;;;;;;;16.88;15.10;;;;;;;8.60;99.00;102206.84;1036200;28;20877;-81
2022/05/07 00:02:11;;;;;;;16.23;14.82;;;;;;;8.51;98.51;102204.41;1036951;28;20292;-81
2022/05/07 00:02:43;;;;;;;16.55;15.00;;;;;;;8.43;99.31;102204.41;1040691;28;20292;-81
2022/05/07 00:03:16;;;;;;;16.15;14.07;;;;;;;8.50;98.92;102208.06;1044370;28;20299;-82
2022/05/07 00:03:47;;;;;;;15.82;14.25;;;;;;;8.52;98.81;102206.06;1044780;28;20403;-81
2022/05/07 00:04:19;;;;;;;16.58;15.18;;;;;;;8.43;99.48;102202.56;1044385;28;20303;-81
2022/05/07 00:04:51;;;;;;;18.17;16.35;;;;;;;8.29;99.62;102205.88;1044336;28;20361;-81
2022/05/07 00:05:23;;;;;;;17.50;15.70;;;;;;;8.31;99.17;102202.06;1044338;28;20831;-82
2022/05/07 00:05:54;;;;;;;15.13;13.70;;;;;;;8.40;99.57;102204.72;1044414;28;20275;-81
2022/05/07 00:06:26;;;;;;;15.90;14.32;;;;;;;8.42;99.35;102213.34;1044540;28;20299;-81
2022/05/07 00:06:58;;;;;;;16.38;14.68;;;;;;;8.34;99.29;102206.25;1044720;28;20294;-81
2022/05/07 00:07:29;;;;;;;16.75;14.80;;;;;;;8.24;99.80;102206.41;1044135;28;20373;-81
2022/05/07 00:08:03;;;;;;;17.50;15.75;;;;;;;8.23;99.54;102210.03;1040195;28;20845;-81
2022/05/07 00:08:34;;;;;;;16.73;14.93;;;;;;;8.20;99.53;102205.03;1037529;28;20309;-81
2022/05/07 00:09:06;;;;;;;18.48;16.65;;;;;;;8.29;100.00;102203.22;1040741;28;20339;-82
2022/05/07 00:09:39;;;;;;;18.10;16.20;;;;;;;8.36;99.52;102199.75;1044246;28;20299;-81
2022/05/07 00:10:11;;;;;;;17.27;14.85;;;;;;;8.41;100.00;102209.03;1044433;28;20418;-81
2022/05/07 00:10:43;;;;;;;20.05;15.73;;;;;;;8.46;99.68;102209.38;1044255;28;20295;-81
2022/05/07 00:11:20;;;;;;;18.42;16.45;;;;;;;8.51;100.00;102207.06;1044248;28;20346;-81
2022/05/07 00:11:51;;;;;;;17.88;16.15;;;;;;;8.55;99.26;102209.19;1041171;28;20388;-81
2022/05/07 00:18:01;;;;;;;19.63;16.27;;;;;;;8.42;99.26;102208.88;1041747;28;20263;-81
2022/05/07 00:18:14;;;;;;;37.17;15.60;;;;;;;8.78;98.00;102211.13;1043401;28;20518;-82
2022/05/07 00:18:46;;;;;;;33.30;15.15;;;;;;;8.65;97.71;102215.13;1040802;28;20720;-81
2022/05/07 00:19:17;;;;;;;36.45;15.82;;;;;;;8.62;98.32;102212.00;1043399;28;20310;-81
2022/05/07 00:19:50;;;;;;;26.38;15.30;;;;;;;8.64;97.63;102210.00;1043538;28;20307;-81
2022/05/07 00:20:22;;;;;;;20.63;15.95;;;;;;;8.51;97.43;102207.88;1043489;28;20295;-81
2022/05/07 00:20:54;;;;;;;22.88;15.98;;;;;;;8.54;98.11;102214.69;1044086;28;20398;-81
2022/05/07 00:21:28;;;;;;;23.17;15.60;;;;;;;8.63;97.92;102211.81;1044243;28;20395;-81
2022/05/07 00:22:00;;;;;;;20.08;15.20;;;;;;;8.52;97.88;102209.53;1039303;28;20292;-81
2022/05/07 00:22:32;;;;;;;16.25;14.57;;;;;;;8.45;97.86;102208.53;1039691;28;20654;-81
2022/05/07 00:23:03;;;;;;;28.55;15.88;;;;;;;8.38;98.41;102201.41;1040275;28;20296;-81
2022/05/07 00:23:35;;;;;;;21.10;14.85;;;;;;;8.42;98.59;102214.19;1043420;28;20793;-81
2022/05/07 00:24:07;;;;;;;17.95;15.50;;;;;;;8.63;99.11;102209.19;1044172;28;20653;-81
2022/05/07 00:24:39;;;;;;;16.85;15.05;;;;;;;8.76;98.76;102205.16;1043365;28;20390;-81
2022/05/07 00:25:10;;;;;;;16.65;14.93;;;;;;;8.46;98.51;102207.53;1043443;28;20299;-81
2022/05/07 00:25:42;;;;;;;23.65;16.52;;;;;;;8.62;98.82;102206.69;1039887;28;20292;-81
2022/05/07 00:26:14;;;;;;;18.15;15.15;;;;;;;8.82;98.74;102205.31;1039209;28;20300;-81
2022/05/07 00:26:46;;;;;;;16.30;14.55;;;;;;;8.90;98.42;102207.94;1039547;28;20287;-81
2022/05/07 00:27:17;;;;;;;20.17;16.88;;;;;;;8.95;98.11;102205.59;1035810;28;20296;-81
2022/05/07 00:27:49;;;;;;;17.05;14.65;;;;;;;8.95;98.34;102210.91;1039382;28;20295;-82
2022/05/07 00:28:21;;;;;;;17.48;15.10;;;;;;;8.98;98.05;102213.22;1040076;28;20315;-81
2022/05/07 00:28:53;;;;;;;18.88;16.08;;;;;;;8.85;97.53;102202.31;1039457;28;20338;-81
2022/05/07 00:29:24;;;;;;;18.60;15.95;;;;;;;8.80;97.26;102204.66;1035377;28;20296;-81
2022/05/07 00:29:56;;;;;;;17.38;15.57;;;;;;;8.65;98.00;102209.00;1035030;28;20328;-81
2022/05/07 00:30:28;;;;;;;18.55;15.82;;;;;;;8.34;97.56;102207.06;1032240;28;20306;-81
2022/05/07 00:31:00;;;;;;;16.77;15.18;;;;;;;8.36;97.88;102207.72;1031462;28;20825;-81
2022/05/07 00:31:32;;;;;;;16.88;15.07;;;;;;;8.32;99.22;102208.19;1035933;28;20303;-81
2022/05/07 00:32:04;;;;;;;16.42;14.90;;;;;;;8.43;99.27;102209.69;1035796;28;20305;-81
2022/05/07 00:32:36;;;;;;;17.38;15.65;;;;;;;8.50;98.58;102210.72;1040061;28;20784;-81
2022/05/07 00:33:07;;;;;;;17.42;15.73;;;;;;;8.62;98.83;102206.69;1043543;28;20384;-81
2022/05/07 00:33:39;;;;;;;17.40;15.80;;;;;;;8.64;99.26;102202.03;1043677;28;20295;-81
2022/05/07 00:34:11;;;;;;;18.17;16.40;;;;;;;8.58;99.28;102197.41;1043471;28;20653;-81
2022/05/07 00:34:42;;;;;;;18.38;16.50;;;;;;;8.59;99.10;102215.00;1043224;28;20337;-82
2022/05/07 00:35:14;;;;;;;19.08;17.27;;;;;;;8.49;99.08;102209.03;1043779;28;20287;-81
2022/05/07 00:35:46;;;;;;;20.98;17.27;;;;;;;8.48;99.53;102205.53;1035631;28;20308;-81
2022/05/07 00:36:18;;;;;;;19.23;17.33;;;;;;;8.35;99.63;102206.06;1031106;28;20311;-81
2022/05/07 00:36:49;;;;;;;19.35;17.52;;;;;;;8.29;99.37;102209.38;1031808;28;20304;-81
2022/05/07 00:37:23;;;;;;;20.33;18.20;;;;;;;8.24;100.00;102203.75;1028558;28;20298;-81
2022/05/07 00:37:54;;;;;;;20.23;18.10;;;;;;;8.24;100.00;102209.06;1036953;28;20292;-81
2022/05/07 00:38:26;;;;;;;20.02;16.88;;;;;;;8.34;100.00;102201.75;1039967;28;20308;-81
2022/05/07 00:38:59;;;;;;;19.67;17.77;;;;;;;8.47;100.00;102195.09;1040635;28;20323;-81
2022/05/07 00:39:30;;;;;;;19.27;17.48;;;;;;;8.40;100.00;102204.72;1043766;28;20299;-81
2022/05/07 00:40:03;;;;;;;18.90;17.00;;;;;;;8.33;100.00;102200.09;1043244;28;20373;-81
2022/05/07 00:40:36;;;;;;;18.58;16.83;;;;;;;8.48;100.00;102207.38;1047686;28;20648;-81
2022/05/07 00:41:11;;;;;;;18.75;16.95;;;;;;;8.69;100.00;102197.03;1040937;28;20299;-81
2022/05/07 00:41:43;;;;;;;21.05;17.00;;;;;;;8.67;100.00;102201.69;1042444;28;20303;-81
2022/05/07 00:42:15;;;;;;;16.67;15.07;;;;;;;8.46;100.00;102198.75;1043772;28;20291;-82
2022/05/07 00:42:47;;;;;;;16.52;14.20;;;;;;;8.73;100.00;102194.84;1037104;28;20296;-81
2022/05/07 00:43:18;;;;;;;17.23;15.43;;;;;;;8.83;99.70;102206.13;1039764;28;20311;-81
2022/05/07 00:43:50;;;;;;;17.73;15.50;;;;;;;8.85;100.00;102204.13;1039239;28;20300;-81
2022/05/07 00:44:22;;;;;;;17.60;15.20;;;;;;;8.87;99.53;102192.34;1035894;28;20308;-81
2022/05/07 00:44:54;;;;;;;18.25;16.45;;;;;;;8.96;100.00;102193.13;1035263;28;20826;-81
2022/05/07 00:45:26;;;;;;;17.42;15.45;;;;;;;9.05;99.93;102196.59;1035773;28;20446;-81
2022/05/07 00:45:58;;;;;;;21.92;17.00;;;;;;;9.02;98.81;102189.78;1031867;28;20673;-81
2022/05/07 00:46:30;;;;;;;16.70;15.02;;;;;;;8.98;99.40;102191.94;1035762;28;20293;-81
2022/05/07 00:47:12;;;;;;;18.35;16.20;;;;;;;8.72;99.04;102194.03;1035154;28;20799;-81
2022/05/07 00:47:44;;;;;;;16.75;14.98;;;;;;;8.49;98.42;102195.75;1035081;28;20428;-82
2022/05/07 00:48:16;;;;;;;18.10;16.23;;;;;;;8.54;99.16;102191.59;1039236;28;20296;-81
2022/05/07 00:48:51;;;;;;;16.27;14.68;;;;;;;8.64;99.26;102188.75;1029568;28;20313;-81
2022/05/07 00:49:22;;;;;;;17.30;15.70;;;;;;;8.89;98.98;102200.13;1032463;28;20289;-81
2022/05/07 00:51:33;;;;;;;16.67;14.93;;;;;;;8.92;99.15;102195.31;1031834;28;20952;-81
2022/05/07 00:51:47;;;;;;;17.92;15.32;;;;;;;9.43;98.40;102195.72;1027639;28;20294;-81
2022/05/07 00:52:19;;;;;;;19.95;15.07;;;;;;;9.42;97.34;102202.03;1029616;28;20874;-81
2022/05/07 00:52:52;;;;;;;18.95;15.35;;;;;;;9.37;97.10;102187.63;1031858;28;20305;-81
2022/05/07 00:53:24;;;;;;;23.08;15.73;;;;;;;9.25;97.27;102195.16;1021784;28;20308;-81
2022/05/07 00:53:56;;;;;;;17.75;15.55;;;;;;;9.39;96.72;102190.94;1025195;28;20310;-81
2022/05/07 00:54:28;;;;;;;18.05;16.23;;;;;;;9.44;96.67;102196.56;1032373;28;20305;-81
2022/05/07 00:55:02;;;;;;;19.27;16.52;;;;;;;9.48;96.43;102195.19;1032321;28;20309;-81
2022/05/07 00:55:34;;;;;;;20.30;16.20;;;;;;;9.41;96.37;102194.25;1032378;28;20301;-81
2022/05/07 00:56:07;;;;;;;18.05;16.08;;;;;;;9.34;95.95;102188.81;1030819;28;20306;-81
2022/05/07 00:56:39;;;;;;;16.05;14.55;;;;;;;9.43;95.68;102195.72;1028511;28;20852;-81
2022/05/07 00:57:12;;;;;;;17.67;14.93;;;;;;;9.49;95.79;102191.53;1027269;28;20422;-81
2022/05/07 00:57:44;;;;;;;16.73;14.93;;;;;;;9.20;95.67;102186.88;1025639;28;20752;-81
2022/05/07 00:58:17;;;;;;;16.85;15.25;;;;;;;9.12;95.35;102186.91;1027821;28;20401;-81
2022/05/07 00:58:51;;;;;;;20.70;15.68;;;;;;;9.28;96.09;102181.50;1028849;28;20392;-81
2022/05/07 00:59:23;;;;;;;17.38;15.43;;;;;;;8.99;96.14;102188.28;1027215;28;20688;-81
2022/05/07 00:59:55;;;;;;;17.88;15.75;;;;;;;9.15;96.20;102184.75;1028589;28;20305;-81
2022/05/07 01:00:27;;;;;;;16.92;15.25;;;;;;;9.20;96.53;102189.53;1029788;28;20305;-81
2022/05/07 01:01:00;;;;;;;16.98;15.27;;;;;;;9.16;96.39;102182.91;1036518;28;20308;-81
2022/05/07 01:01:32;;;;;;;17.98;16.08;;;;;;;9.19;96.56;102190.53;1035890;28;20297;-81
2022/05/07 01:02:04;;;;;;;17.05;15.45;;;;;;;8.98;96.72;102186.63;1036573;28;20384;-81
2022/05/07 01:02:37;;;;;;;18.98;16.23;;;;;;;8.85;96.66;102186.38;1035902;28;20301;-81
2022/05/07 01:03:09;;;;;;;17.60;15.60;;;;;;;8.83;97.14;102191.03;1028469;28;20302;-81
2022/05/07 01:03:41;;;;;;;17.55;15.23;;;;;;;8.78;97.64;102187.22;1024453;28;20302;-82
2022/05/07 01:04:13;;;;;;;17.73;15.55;;;;;;;8.68;97.87;102182.94;1028572;28;20309;-81
2022/05/07 01:04:45;;;;;;;17.20;15.55;;;;;;;8.66;97.95;102179.63;1032732;28;20297;-81
2022/05/07 01:05:16;;;;;;;17.38;15.77;;;;;;;8.65;98.57;102182.44;1033055;28;20304;-82
2022/05/07 01:05:49;;;;;;;18.00;16.27;;;;;;;8.61;98.71;102181.13;1041096;28;20300;-81
2022/05/07 01:06:21;;;;;;;17.95;16.05;;;;;;;8.64;99.02;102180.78;1035941;28;20333;-82
2022/05/07 01:06:53;;;;;;;17.00;15.50;;;;;;;8.61;98.31;102181.13;1031447;28;20372;-82
2022/05/07 01:07:24;;;;;;;17.88;16.20;;;;;;;8.54;98.30;102178.34;1028539;28;20289;-81
2022/05/07 01:07:56;;;;;;;19.77;16.55;;;;;;;8.55;98.66;102168.53;1028450;28;20329;-81
2022/05/07 01:08:30;;;;;;;21.10;17.23;;;;;;;8.56;99.47;102178.16;1029184;28;20302;-81
2022/05/07 01:09:04;;;;;;;17.75;15.98;;;;;;;8.56;99.04;102179.00;1028748;28;20434;-81
2022/05/07 01:09:37;;;;;;;18.60;15.60;;;;;;;8.68;98.92;102176.78;1023850;29;20313;-81
2022/05/07 01:10:09;;;;;;;19.98;17.90;;;;;;;8.76;99.28;102174.09;1031782;28;20308;-81
2022/05/07 01:10:41;;;;;;;18.85;16.95;;;;;;;8.70;98.79;102177.44;1035856;28;20775;-81
2022/05/07 01:11:17;;;;;;;19.77;17.30;;;;;;;8.69;99.43;102173.13;1031797;28;20293;-81
2022/05/07 01:14:09;;;;;;;16.67;15.00;;;;;;;8.77;99.35;102173.13;1040300;28;20654;-81
2022/05/07 01:14:42;;;;;;;17.98;15.85;;;;;;;8.80;99.60;102170.13;1035851;28;20305;-82
2022/05/07 01:15:14;;;;;;;18.33;15.50;;;;;;;8.81;99.17;102176.25;1031669;28;20309;-81
2022/05/07 01:15:48;;;;;;;18.35;16.35;;;;;;;8.76;99.33;102179.41;1031733;28;20301;-81
2022/05/07 01:16:23;;;;;;;18.80;17.05;;;;;;;8.83;99.40;102174.25;1034542;28;20296;-81
2022/05/07 01:16:54;;;;;;;17.83;16.23;;;;;;;9.05;99.73;102172.69;1035978;28;20866;-81
2022/05/07 01:17:26;;;;;;;21.20;17.23;;;;;;;9.14;99.64;102176.94;1032746;28;20429;-81
2022/05/07 01:17:58;;;;;;;17.67;16.08;;;;;;;8.95;99.48;102176.34;1035767;28;20391;-81
2022/05/07 01:18:30;;;;;;;17.83;16.13;;;;;;;8.82;99.52;102170.78;1035990;28;20371;-81
2022/05/07 01:19:02;;;;;;;19.42;17.48;;;;;;;8.77;99.46;102169.63;1028246;28;20302;-81
2022/05/07 01:19:34;;;;;;;19.02;16.98;;;;;;;8.74;99.48;102170.78;1029035;28;20294;-82
2022/05/07 01:20:09;;;;;;;17.75;16.05;;;;;;;8.79;99.43;102168.47;1035789;28;20359;-81
2022/05/07 01:20:41;;;;;;;19.08;17.15;;;;;;;8.73;100.00;102169.13;1032516;28;20376;-81
2022/05/07 01:21:15;;;;;;;21.17;17.17;;;;;;;8.67;99.47;102167.16;1032893;28;20304;-81
2022/05/07 01:21:48;;;;;;;18.10;16.17;;;;;;;8.68;99.79;102166.16;1027689;28;20306;-81
2022/05/07 01:22:21;;;;;;;18.17;16.45;;;;;;;8.71;99.59;102164.97;1032696;28;20306;-81
2022/05/07 01:22:53;;;;;;;20.30;17.80;;;;;;;8.88;99.89;102167.41;1028759;28;20306;-81
2022/05/07 01:23:29;;;;;;;20.27;18.17;;;;;;;9.09;100.00;102166.00;1027817;28;20337;-81
2022/05/07 01:24:02;;;;;;;18.95;17.00;;;;;;;9.31;100.00;102165.19;1024397;29;20309;-81
2022/05/07 01:24:38;;;;;;;19.35;17.33;;;;;;;9.47;99.61;102166.94;1026266;28;20361;-81
2022/05/07 01:25:09;;;;;;;21.35;17.08;;;;;;;9.50;98.64;102170.06;1026460;28;20381;-81
2022/05/07 01:25:41;;;;;;;19.75;17.55;;;;;;;9.55;98.54;102170.38;1030508;28;20308;-81
2022/05/07 01:26:16;;;;;;;19.65;17.73;;;;;;;9.66;98.28;102168.31;1037238;28;20317;-81
2022/05/07 01:26:48;;;;;;;23.63;18.67;;;;;;;9.67;97.75;102168.13;1041611;28;20307;-82
2022/05/07 01:27:19;;;;;;;21.30;18.70;;;;;;;9.66;97.76;102166.47;1040688;28;20304;-81
2022/05/07 01:27:51;;;;;;;20.88;18.27;;;;;;;9.63;97.78;102166.00;1037420;28;20639;-82
2022/05/07 01:28:23;;;;;;;19.88;17.88;;;;;;;9.63;97.47;102168.69;1036727;28;20317;-81
2022/05/07 01:29:07;;;;;;;22.73;18.85;;;;;;;9.46;97.39;102168.78;1033102;28;20315;-82
2022/05/07 01:29:43;;;;;;;32.25;17.10;;;;;;;9.10;97.28;102162.34;1035712;28;20300;-81
2022/05/07 01:30:15;;;;;;;25.60;17.27;;;;;;;9.17;96.84;102165.97;1031491;28;20317;-81
2022/05/07 01:30:47;;;;;;;20.95;16.67;;;;;;;9.20;97.59;102162.94;1031329;28;20324;-81
2022/05/07 01:31:18;;;;;;;19.58;16.65;;;;;;;9.29;97.19;102169.88;1028950;28;20357;-81
2022/05/07 01:31:50;;;;;;;22.60;16.80;;;;;;;9.33;96.90;102163.22;1029582;28;20302;-81
2022/05/07 01:32:22;;;;;;;19.52;17.55;;;;;;;9.36;97.48;102160.22;1032669;28;20329;-81
2022/05/07 01:32:54;;;;;;;20.27;17.17;;;;;;;9.36;97.58;102165.53;1033807;28;20417;-81
2022/05/07 01:33:26;;;;;;;18.58;16.77;;;;;;;9.47;97.67;102167.78;1037275;28;20644;-81
2022/05/07 01:33:58;;;;;;;19.20;16.67;;;;;;;9.42;96.87;102164.00;1037351;28;20301;-81
2022/05/07 01:34:32;;;;;;;21.20;16.95;;;;;;;9.51;97.01;102166.41;1040759;28;20300;-81
2022/05/07 01:35:04;;;;;;;19.50;16.98;;;;;;;9.38;96.61;102163.53;1041431;28;20295;-81
2022/05/07 01:35:36;;;;;;;18.83;16.88;;;;;;;9.14;96.65;102167.13;1041398;28;20303;-81
2022/05/07 01:36:11;;;;;;;19.90;18.05;;;;;;;9.29;97.09;102159.22;1036993;28;20316;-81
2022/05/07 01:36:46;;;;;;;17.73;15.48;;;;;;;9.35;96.58;102163.03;1036450;28;20308;-81
2022/05/07 01:37:20;;;;;;;17.67;14.85;;;;;;;9.39;95.97;102162.50;1034100;28;20305;-81
2022/05/07 01:37:52;;;;;;;17.77;16.05;;;;;;;9.45;96.46;102161.81;1040208;28;20608;-81
2022/05/07 01:38:24;;;;;;;17.50;15.82;;;;;;;9.46;95.67;102160.78;1040757;28;20775;-81
2022/05/07 01:38:56;;;;;;;17.90;16.15;;;;;;;9.40;96.32;102158.84;1040685;28;20304;-81
2022/05/07 01:39:31;;;;;;;18.00;15.63;;;;;;;9.48;95.66;102158.78;1037047;28;20304;-81
2022/05/07 01:40:05;;;;;;;17.73;16.05;;;;;;;9.20;95.29;102161.13;1034733;28;20304;-81
2022/05/07 01:40:37;;;;;;;16.70;15.10;;;;;;;9.18;96.02;102155.16;1031775;28;20392;-81
2022/05/07 01:41:09;;;;;;;18.35;16.65;;;;;;;9.25;95.75;102157.94;1035804;28;20300;-81
2022/05/07 01:41:43;;;;;;;18.02;16.27;;;;;;;9.08;95.75;102162.53;1031980;28;20301;-81
2022/05/07 01:42:14;;;;;;;21.58;16.90;;;;;;;8.99;96.09;102159.06;1028644;28;20963;-81
2022/05/07 01:42:46;;;;;;;18.90;16.90;;;;;;;9.01;96.65;102152.75;1023574;28;20833;-81
2022/05/07 01:43:18;;;;;;;16.88;15.27;;;;;;;9.18;96.58;102156.97;1024526;28;20303;-81
2022/05/07 01:43:50;;;;;;;16.75;15.07;;;;;;;9.39;96.38;102159.84;1029181;28;20695;-81
2022/05/07 01:44:22;;;;;;;20.25;18.35;;;;;;;9.57;96.70;102152.41;1033036;28;20301;-81
2022/05/07 01:44:54;;;;;;;18.70;16.80;;;;;;;9.55;96.05;102157.06;1040055;28;20365;-81
2022/05/07 01:45:25;;;;;;;20.05;18.00;;;;;;;9.51;96.02;102155.78;1035861;28;20304;-81
2022/05/07 01:46:02;;;;;;;18.80;16.88;;;;;;;9.41;96.15;102165.81;1039923;28;20300;-81
2022/05/07 01:48:21;;;;;;;18.80;16.15;;;;;;;9.47;95.50;102156.31;1033792;28;20296;-81
2022/05/07 01:48:57;;;;;;;17.65;15.85;;;;;;;9.46;95.20;102158.13;1034865;28;21101;-81
2022/05/07 01:49:30;;;;;;;18.23;16.30;;;;;;;9.45;95.36;102159.13;1037550;28;20919;-81
2022/05/07 01:50:04;;;;;;;18.20;16.30;;;;;;;9.38;95.06;102152.88;1039730;28;20446;-81
2022/05/07 01:50:43;;;;;;;17.42;15.75;;;;;;;9.51;95.76;102158.44;1036154;28;20296;-81
2022/05/07 01:51:18;;;;;;;19.52;16.80;;;;;;;9.57;94.89;102151.56;1026459;28;20448;-81
2022/05/07 01:51:50;;;;;;;19.20;17.40;;;;;;;9.62;94.55;102154.53;1032315;28;20668;-81
2022/05/07 01:52:22;;;;;;;24.73;17.20;;;;;;;9.78;94.83;102148.25;1029415;28;20788;-81
2022/05/07 01:52:54;;;;;;;20.48;17.50;;;;;;;9.81;94.35;102150.56;1032209;28;20308;-81
2022/05/07 01:53:26;;;;;;;19.95;17.73;;;;;;;9.86;94.55;102148.19;1028081;28;20298;-81
2022/05/07 01:53:59;;;;;;;20.45;18.33;;;;;;;9.86;93.58;102149.03;1029450;28;20301;-81
2022/05/07 01:54:31;;;;;;;20.40;18.20;;;;;;;9.85;93.77;102157.16;1029217;28;20309;-81
2022/05/07 01:55:04;;;;;;;18.58;16.70;;;;;;;9.81;94.01;102153.22;1032609;28;20301;-81
2022/05/07 01:55:36;;;;;;;20.23;18.13;;;;;;;9.75;93.70;102154.75;1032773;28;20305;-81
2022/05/07 01:56:08;;;;;;;19.15;17.33;;;;;;;9.82;93.55;102149.56;1032538;28;20305;-81
2022/05/07 01:56:48;;;;;;;20.23;18.00;;;;;;;9.85;93.39;102154.50;1033420;28;20305;-81
2022/05/07 01:57:19;;;;;;;21.52;19.40;;;;;;;9.85;93.70;102155.34;1035044;28;20125;-81
2022/05/07 01:57:54;;;;;;;21.30;18.67;;;;;;;9.58;93.65;102147.91;1033882;28;20313;-80
2022/05/07 01:58:27;;;;;;;20.00;16.95;;;;;;;9.39;93.71;102143.91;1033889;28;20382;-81
2022/05/07 01:59:04;;;;;;;19.65;16.55;;;;;;;9.41;93.97;102151.69;1029339;28;20297;-81
2022/05/07 01:59:37;;;;;;;19.85;17.75;;;;;;;9.30;93.81;102144.94;1029152;28;20332;-81
2022/05/07 02:00:13;;;;;;;18.83;16.98;;;;;;;9.24;94.29;102148.31;1034812;28;20313;-81
2022/05/07 02:00:45;;;;;;;19.13;17.27;;;;;;;9.32;94.75;102153.59;1039754;28;20328;-81
2022/05/07 02:01:17;;;;;;;20.48;18.38;;;;;;;9.32;94.44;102147.44;1040968;28;20343;-81
2022/05/07 02:01:49;;;;;;;19.15;17.15;;;;;;;9.36;94.75;102146.91;1031803;28;20376;-81
2022/05/07 02:02:24;;;;;;;17.92;16.13;;;;;;;9.33;94.53;102149.94;1023847;29;20700;-81
2022/05/07 02:02:58;;;;;;;18.58;16.77;;;;;;;9.38;94.76;102149.38;1029260;28;20301;-81
2022/05/07 02:03:31;;;;;;;19.30;17.40;;;;;;;9.47;94.54;102146.50;1027751;28;20830;-81
2022/05/07 02:04:04;;;;;;;17.70;16.08;;;;;;;9.45;94.65;102156.47;1025507;28;20303;-81
2022/05/07 02:04:36;;;;;;;18.10;16.30;;;;;;;9.40;93.75;102145.56;1030823;28;20359;-81
2022/05/07 02:05:10;;;;;;;19.83;17.80;;;;;;;9.37;93.99;102140.59;1030917;28;20318;-81
2022/05/07 02:05:41;;;;;;;18.48;16.42;;;;;;;9.40;94.39;102150.88;1032508;28;20293;-81
2022/05/07 02:06:13;;;;;;;17.48;15.75;;;;;;;9.43;94.42;102153.16;1028668;28;20392;-81
2022/05/07 02:06:45;;;;;;;18.42;16.33;;;;;;;9.12;94.13;102147.88;1032683;28;20357;-81
2022/05/07 02:07:17;;;;;;;20.02;16.90;;;;;;;9.00;94.15;102149.25;1032929;28;20298;-81
2022/05/07 02:07:48;;;;;;;18.83;16.92;;;;;;;8.94;94.25;102150.78;1036310;28;21047;-81
2022/05/07 02:08:21;;;;;;;18.23;16.40;;;;;;;8.87;94.89;102149.81;1036787;28;20312;-81
2022/05/07 02:08:54;;;;;;;21.83;17.02;;;;;;;8.92;94.62;102147.47;1032731;28;20309;-81
2022/05/07 02:09:31;;;;;;;18.67;16.35;;;;;;;8.95;94.77;102152.44;1029774;28;20306;-81
2022/05/07 02:10:03;;;;;;;18.35;16.55;;;;;;;8.76;95.04;102152.84;1032446;28;20806;-81
2022/05/07 02:10:37;;;;;;;17.90;16.10;;;;;;;8.72;95.27;102148.88;1031694;28;20943;-81
2022/05/07 02:11:08;;;;;;;19.98;16.52;;;;;;;8.54;95.51;102150.94;1037174;28;20379;-81
2022/05/07 02:11:40;;;;;;;18.42;15.27;;;;;;;8.46;96.05;102154.44;1044748;28;20295;-81
2022/05/07 02:12:12;;;;;;;23.27;17.05;;;;;;;8.44;96.17;102153.78;1040480;28;20314;-82
2022/05/07 02:12:49;;;;;;;18.73;16.75;;;;;;;8.54;96.80;102150.94;1032492;28;20672;-81
2022/05/07 02:13:24;;;;;;;20.50;17.65;;;;;;;8.75;96.90;102148.53;1032412;28;20360;-81
2022/05/07 02:13:56;;;;;;;18.80;16.63;;;;;;;8.74;96.82;102146.88;1028394;28;20310;-81
2022/05/07 02:14:29;;;;;;;18.48;16.67;;;;;;;8.65;96.79;102155.88;1031380;28;20308;-81
2022/05/07 02:15:02;;;;;;;19.17;17.00;;;;;;;8.51;96.89;102151.28;1033173;28;20301;-81
2022/05/07 02:15:35;;;;;;;20.50;16.98;;;;;;;8.47;97.61;102153.44;1029105;28;20772;-81
2022/05/07 02:16:07;;;;;;;22.80;17.73;;;;;;;8.41;97.85;102153.28;1030322;28;20313;-81
2022/05/07 02:16:38;;;;;;;23.27;16.92;;;;;;;8.42;97.98;102154.94;1033102;28;20505;-81
2022/05/07 02:17:11;;;;;;;23.95;18.58;;;;;;;8.41;97.91;102153.28;1033115;28;20740;-82
2022/05/07 02:17:42;;;;;;;94.28;23.33;;;;;;;8.40;98.32;102152.47;1036542;28;20362;-81
2022/05/07 02:18:16;;;;;;;46.45;18.52;;;;;;;8.55;97.79;102150.78;1038090;28;20304;-81
2022/05/07 02:18:49;;;;;;;102.13;23.02;;;;;;;8.60;98.47;102152.91;1036849;28;20655;-81
2022/05/07 02:19:21;;;;;;;91.55;22.30;;;;;;;8.36;98.07;102149.31;1039675;28;20793;-81
2022/05/07 02:19:52;;;;;;;76.28;23.15;;;;;;;8.33;98.81;102156.75;1040638;28;20678;-81
2022/05/07 02:20:25;;;;;;;76.70;20.92;;;;;;;8.26;99.18;102151.31;1043717;28;20764;-80
2022/05/07 02:21:01;;;;;;;74.75;20.98;;;;;;;8.38;98.78;102150.97;1036843;28;20308;-80
2022/05/07 02:21:32;;;;;;;105.07;23.33;;;;;;;8.46;99.01;102153.59;1031810;28;20337;-81
2022/05/07 02:22:04;;;;;;;70.82;20.52;;;;;;;8.43;98.78;102156.59;1031902;28;20297;-81
2022/05/07 02:22:36;;;;;;;62.83;22.77;;;;;;;8.55;98.75;102157.91;1031851;28;20309;-81
2022/05/07 02:23:08;;;;;;;78.72;24.08;;;;;;;8.67;98.83;102151.22;1028330;28;20334;-81
2022/05/07 02:23:40;;;;;;;67.32;20.80;;;;;;;8.79;99.11;102149.88;1031851;28;20344;-81
2022/05/07 02:24:12;;;;;;;68.38;21.27;;;;;;;8.79;98.22;102151.69;1027320;28;20314;-81
2022/05/07 02:24:43;;;;;;;32.40;19.08;;;;;;;8.65;98.42;102155.88;1031782;28;20309;-81
2022/05/07 02:25:23;;;;;;;68.75;22.55;;;;;;;8.81;98.76;102153.19;1031717;28;20358;-81
2022/05/07 02:26:00;;;;;;;43.50;20.98;;;;;;;8.93;98.46;102148.28;1036463;28;20313;-81
2022/05/07 02:26:32;;;;;;;43.78;19.42;;;;;;;8.90;98.55;102148.66;1033547;28;20360;-81
2022/05/07 02:27:07;;;;;;;34.58;18.58;;;;;;;9.04;98.31;102141.75;1035685;28;20675;-81
2022/05/07 02:27:41;;;;;;;41.53;18.77;;;;;;;8.88;97.38;102155.97;1032488;28;20723;-81
2022/05/07 02:28:14;;;;;;;27.55;18.85;;;;;;;8.86;97.95;102148.16;1032630;28;20396;-81
2022/05/07 02:28:47;;;;;;;34.58;18.80;;;;;;;8.75;97.47;102156.50;1031507;28;20684;-81
2022/05/07 02:29:20;;;;;;;23.77;16.85;;;;;;;8.57;97.58;102147.94;1029099;28;20309;-81
2022/05/07 02:29:54;;;;;;;36.33;18.10;;;;;;;8.48;97.59;102147.13;1034949;28;20344;-81
2022/05/07 02:30:28;;;;;;;34.25;17.73;;;;;;;8.42;97.74;102149.63;1037407;28;20304;-81
2022/05/07 02:31:04;;;;;;;26.38;18.23;;;;;;;8.36;97.74;102145.84;1037454;28;20308;-81
2022/05/07 02:31:36;;;;;;;20.20;17.55;;;;;;;8.32;98.30;102145.31;1039774;28;20362;-81
2022/05/07 02:32:07;;;;;;;24.65;17.00;;;;;;;8.29;98.69;102145.66;1035766;28;20313;-81
2022/05/07 02:32:47;;;;;;;19.20;17.17;;;;;;;8.26;98.49;102146.00;1028767;28;20313;-81
2022/05/07 02:33:21;;;;;;;20.35;16.05;;;;;;;8.28;98.38;102151.13;1034143;28;20726;-80
2022/05/07 02:33:52;;;;;;;22.13;16.80;;;;;;;8.23;98.68;102145.50;1034546;28;20308;-81
2022/05/07 02:34:25;;;;;;;18.05;16.17;;;;;;;8.20;98.63;102151.97;1035660;28;20309;-81
2022/05/07 02:34:56;;;;;;;19.55;17.40;;;;;;;8.41;99.24;102148.81;1037474;28;20354;-81
2022/05/07 02:35:41;;;;;;;18.70;16.20;;;;;;;8.65;98.73;102145.25;1029525;28;20886;-81
2022/05/07 02:36:13;;;;;;;18.70;16.73;;;;;;;8.51;98.64;102145.97;1030081;28;20302;-80
2022/05/07 02:36:44;;;;;;;20.67;17.42;;;;;;;8.45;98.69;102149.28;1029477;28;20298;-81
2022/05/07 02:37:18;;;;;;;19.27;17.38;;;;;;;8.46;98.41;102150.94;1032081;28;20312;-81
2022/05/07 02:37:54;;;;;;;30.52;18.65;;;;;;;8.50;98.88;102149.63;1027709;28;20316;-81
2022/05/07 02:38:30;;;;;;;28.52;19.25;;;;;;;8.66;98.73;102141.59;1034619;28;20301;-81
2022/05/07 02:39:02;;;;;;;26.90;19.65;;;;;;;8.72;98.53;102146.22;1038312;28;20789;-81
2022/05/07 02:39:34;;;;;;;18.50;16.65;;;;;;;8.54;98.47;102149.13;1040489;28;20296;-81
2022/05/07 02:40:06;;;;;;;32.17;17.88;;;;;;;8.60;97.97;102148.44;1037320;28;20761;-81
2022/05/07 02:42:36;;;;;;;29.33;18.95;;;;;;;8.48;98.21;102147.13;1038231;28;20340;-81
2022/05/07 02:43:22;;;;;;;23.20;17.42;;;;;;;8.63;98.16;102144.59;1037699;28;20053;-81